Time;durP1;ratioP1;P1;durP2;ratioP2;P2;SDS_P1;SDS_P2;PMS_P1;PMS_P2;Temp;Humidity;BMP_temperature;BMP_pressure;BME280_temperature;BME280_humidity;BME280_pressure;Samples;Min_cycle;Max_cycle;Signal;HPM_P1;HPM_P2
2021/08/04 00:02:59;;;;;;;3.38;2.17;;;;;;;;;;10339785;28;20385;-84
2021/08/04 00:07:59;;;;;;;3.20;2.13;;;;;;;;;;10340251;28;20050;-83
2021/08/04 00:13:00;;;;;;;3.33;1.97;;;;;;;;;;10340582;28;20516;-83
2021/08/04 00:18:00;;;;;;;3.92;2.42;;;;;;;;;;10339358;28;20058;-83
2021/08/04 00:23:01;;;;;;;2.55;2.08;;;;;;;;;;10339904;28;20057;-83
2021/08/04 00:28:02;;;;;;;2.83;2.25;;;;;;;;;;10339715;28;20407;-84
2021/08/04 00:33:02;;;;;;;3.10;2.10;;;;;;;;;;10339573;28;20416;-84
2021/08/04 00:38:11;;;;;;;3.67;1.92;;;;;;;;;;10339291;28;20452;-84
2021/08/04 00:43:12;;;;;;;2.60;2.00;;;;;;;;;;10338175;28;20022;-84
2021/08/04 00:48:12;;;;;;;1.73;1.63;;;;;;;;;;10337761;28;20030;-84
2021/08/04 00:53:23;;;;;;;2.38;1.88;;;;;;;;;;10336741;28;20072;-84
2021/08/04 00:58:31;;;;;;;2.00;1.80;;;;;;;;;;10337504;28;20076;-84
2021/08/04 01:03:36;;;;;;;1.95;1.70;;;;;;;;;;10338999;28;20032;-84
2021/08/04 01:08:42;;;;;;;2.58;1.88;;;;;;;;;;10336202;28;20066;-84
2021/08/04 01:13:47;;;;;;;3.38;2.10;;;;;;;;;;10337263;28;20026;-84
2021/08/04 01:19:06;;;;;;;2.30;1.70;;;;;;;;;;10336573;28;20100;-84
2021/08/04 01:24:12;;;;;;;1.67;1.55;;;;;;;;;;10337712;28;20041;-83
2021/08/04 01:29:14;;;;;;;2.33;1.70;;;;;;;;;;10320169;28;20407;-83
2021/08/04 01:34:16;;;;;;;1.60;1.50;;;;;;;;;;10336847;28;20026;-84
2021/08/04 01:39:18;;;;;;;2.75;1.80;;;;;;;;;;10345351;28;20029;-83
2021/08/04 01:44:19;;;;;;;2.17;1.75;;;;;;;;;;10347764;28;20511;-83
2021/08/04 01:49:20;;;;;;;2.72;2.00;;;;;;;;;;10336447;28;20488;-83
2021/08/04 01:54:21;;;;;;;2.40;1.90;;;;;;;;;;10326334;28;20038;-83
2021/08/04 01:59:23;;;;;;;5.65;1.77;;;;;;;;;;10335037;28;20034;-83
2021/08/04 02:04:24;;;;;;;1.80;1.50;;;;;;;;;;10336351;28;20038;-84
2021/08/04 02:09:37;;;;;;;3.40;1.53;;;;;;;;;;10334931;28;20093;-84
2021/08/04 02:14:45;;;;;;;1.48;1.38;;;;;;;;;;10348211;28;20030;-83
2021/08/04 02:19:55;;;;;;;2.10;1.73;;;;;;;;;;10333575;28;20023;-83
2021/08/04 02:25:02;;;;;;;2.10;1.80;;;;;;;;;;10317982;28;20037;-84
2021/08/04 02:30:04;;;;;;;1.73;1.30;;;;;;;;;;10333916;28;20048;-83
2021/08/04 02:35:06;;;;;;;1.38;1.27;;;;;;;;;;10332900;28;20045;-83
2021/08/04 02:40:08;;;;;;;3.35;1.92;;;;;;;;;;10335350;28;20100;-83
2021/08/04 02:45:09;;;;;;;1.55;1.45;;;;;;;;;;10333551;28;20046;-83
2021/08/04 02:50:10;;;;;;;2.85;1.77;;;;;;;;;;10348015;28;20540;-84
2021/08/04 02:55:11;;;;;;;1.48;1.38;;;;;;;;;;10333140;28;20044;-84
2021/08/04 03:00:11;;;;;;;1.40;1.30;;;;;;;;;;10332246;28;20121;-84
2021/08/04 03:05:12;;;;;;;2.00;1.67;;;;;;;;;;10334198;28;20472;-84
2021/08/04 03:10:12;;;;;;;1.97;1.60;;;;;;;;;;10333903;28;20049;-83
2021/08/04 03:15:13;;;;;;;1.87;1.40;;;;;;;;;;10333816;28;20065;-83
2021/08/04 03:20:13;;;;;;;1.83;1.47;;;;;;;;;;10332086;28;20448;-84
2021/08/04 03:25:15;;;;;;;2.20;1.50;;;;;;;;;;10339611;28;20117;-83
2021/08/04 03:30:15;;;;;;;1.50;1.40;;;;;;;;;;10340808;28;20591;-84
2021/08/04 03:35:16;;;;;;;1.90;1.60;;;;;;;;;;10340820;28;20165;-83
2021/08/04 03:40:16;;;;;;;2.83;1.40;;;;;;;;;;10340107;28;20022;-84
2021/08/04 03:45:17;;;;;;;1.45;1.35;;;;;;;;;;10341078;28;20069;-84
2021/08/04 03:50:17;;;;;;;1.50;1.40;;;;;;;;;;10353728;28;20037;-84
2021/08/04 03:55:17;;;;;;;1.77;1.63;;;;;;;;;;10341113;28;20030;-83
2021/08/04 04:00:18;;;;;;;1.57;1.47;;;;;;;;;;10312274;28;20460;-83
2021/08/04 04:05:18;;;;;;;2.17;1.70;;;;;;;;;;10340713;28;20030;-83
2021/08/04 04:10:19;;;;;;;1.90;1.57;;;;;;;;;;10416137;23;20573;-83
2021/08/04 04:15:19;;;;;;;1.60;1.50;;;;;;;;;;10339824;28;20050;-84
2021/08/04 04:20:19;;;;;;;1.73;1.60;;;;;;;;;;10339997;28;20446;-83
2021/08/04 04:25:21;;;;;;;1.70;1.53;;;;;;;;;;10340205;28;20439;-83
2021/08/04 04:30:21;;;;;;;1.58;1.38;;;;;;;;;;10339655;28;20089;-83
2021/08/04 04:35:22;;;;;;;1.70;1.43;;;;;;;;;;10337710;28;20436;-84
2021/08/04 04:40:22;;;;;;;1.93;1.50;;;;;;;;;;10339163;28;20019;-83
2021/08/04 04:45:22;;;;;;;1.90;1.50;;;;;;;;;;10339398;28;20034;-83
2021/08/04 04:50:23;;;;;;;2.63;1.57;;;;;;;;;;10338954;28;20775;-84
2021/08/04 04:55:23;;;;;;;2.60;1.63;;;;;;;;;;10338975;28;20066;-83
2021/08/04 05:00:24;;;;;;;2.27;1.50;;;;;;;;;;10337523;28;20105;-84
2021/08/04 05:05:24;;;;;;;1.70;1.50;;;;;;;;;;10338671;28;20480;-84
2021/08/04 05:10:25;;;;;;;1.77;1.60;;;;;;;;;;10335850;28;20548;-84
2021/08/04 05:15:25;;;;;;;2.15;1.45;;;;;;;;;;10342252;28;20038;-84
2021/08/04 05:20:26;;;;;;;1.52;1.38;;;;;;;;;;10342938;28;20033;-85
2021/08/04 05:25:27;;;;;;;3.05;1.55;;;;;;;;;;10335803;28;20058;-86
2021/08/04 05:30:27;;;;;;;3.60;1.85;;;;;;;;;;10340057;28;20109;-85
2021/08/04 05:35:28;;;;;;;4.77;1.93;;;;;;;;;;10346396;28;20117;-85
2021/08/04 05:40:28;;;;;;;4.17;1.90;;;;;;;;;;10342629;28;20030;-84
2021/08/04 05:45:30;;;;;;;6.63;2.83;;;;;;;;;;10337353;28;20035;-85
2021/08/04 05:50:31;;;;;;;4.68;2.40;;;;;;;;;;10335993;28;20034;-86
2021/08/04 05:55:33;;;;;;;5.05;2.60;;;;;;;;;;10336076;28;20034;-85
2021/08/04 06:00:33;;;;;;;4.80;2.92;;;;;;;;;;10335383;28;20076;-85
2021/08/04 06:05:34;;;;;;;7.27;2.40;;;;;;;;;;10336262;28;20061;-85
2021/08/04 06:10:34;;;;;;;6.93;2.50;;;;;;;;;;10343520;28;20138;-85
2021/08/04 06:15:35;;;;;;;5.90;2.38;;;;;;;;;;10347499;28;20018;-86
2021/08/04 06:20:35;;;;;;;4.10;1.92;;;;;;;;;;10357747;28;20026;-87
2021/08/04 06:25:36;;;;;;;5.00;1.90;;;;;;;;;;10333904;28;20479;-86
2021/08/04 06:30:36;;;;;;;5.83;2.47;;;;;;;;;;10334161;28;20117;-86
2021/08/04 06:35:36;;;;;;;4.90;1.80;;;;;;;;;;10332766;28;20866;-87
2021/08/04 06:40:37;;;;;;;2.37;1.50;;;;;;;;;;10334482;28;20376;-87
2021/08/04 06:45:37;;;;;;;4.63;1.73;;;;;;;;;;10321680;28;20436;-87
2021/08/04 06:50:38;;;;;;;3.67;1.90;;;;;;;;;;10332710;28;20794;-86
2021/08/04 06:55:38;;;;;;;3.77;1.90;;;;;;;;;;10333781;28;20452;-87
2021/08/04 07:00:39;;;;;;;3.63;1.90;;;;;;;;;;10331612;28;20460;-86
2021/08/04 07:05:40;;;;;;;3.60;1.90;;;;;;;;;;10333226;28;20041;-86
2021/08/04 07:10:41;;;;;;;2.45;1.60;;;;;;;;;;10316705;28;20057;-87
2021/08/04 07:15:41;;;;;;;4.07;2.30;;;;;;;;;;10334320;28;20026;-88
2021/08/04 07:20:42;;;;;;;2.20;1.80;;;;;;;;;;10333463;28;20030;-88
2021/08/04 07:25:42;;;;;;;7.65;1.90;;;;;;;;;;10332296;28;20527;-84
2021/08/04 07:30:43;;;;;;;4.10;1.60;;;;;;;;;;10332702;28;20039;-84
2021/08/04 07:35:43;;;;;;;3.88;2.08;;;;;;;;;;10332817;28;20061;-84
2021/08/04 07:40:44;;;;;;;2.47;1.90;;;;;;;;;;10331659;28;20436;-83
2021/08/04 07:45:44;;;;;;;2.87;1.80;;;;;;;;;;10331494;28;20433;-84
2021/08/04 07:50:44;;;;;;;3.93;1.80;;;;;;;;;;10332424;28;20569;-84
2021/08/04 07:55:45;;;;;;;5.70;1.97;;;;;;;;;;10333237;28;20030;-84
2021/08/04 08:00:45;;;;;;;6.90;2.10;;;;;;;;;;10332843;28;20117;-84
2021/08/04 08:05:46;;;;;;;3.97;2.07;;;;;;;;;;10333537;28;20034;-84
2021/08/04 08:10:49;;;;;;;4.43;1.60;;;;;;;;;;10337912;28;20043;-84
2021/08/04 08:15:50;;;;;;;1.58;1.40;;;;;;;;;;10339927;28;20807;-83
2021/08/04 08:20:51;;;;;;;2.53;1.60;;;;;;;;;;10339434;28;20057;-83
2021/08/04 08:25:51;;;;;;;5.10;1.80;;;;;;;;;;10340055;28;20037;-84
2021/08/04 08:30:52;;;;;;;3.63;2.13;;;;;;;;;;10339843;28;20114;-84
2021/08/04 08:35:52;;;;;;;5.28;1.73;;;;;;;;;;10339713;28;20484;-83
2021/08/04 08:40:54;;;;;;;4.80;2.00;;;;;;;;;;10338665;28;20034;-83
2021/08/04 08:45:55;;;;;;;2.97;1.73;;;;;;;;;;10337423;28;20496;-83
2021/08/04 08:50:55;;;;;;;3.10;1.80;;;;;;;;;;10338090;28;20030;-82
2021/08/04 08:55:56;;;;;;;4.13;1.60;;;;;;;;;;10337642;28;20367;-83
2021/08/04 09:00:56;;;;;;;2.70;1.70;;;;;;;;;;10337842;28;20029;-82
2021/08/04 09:05:57;;;;;;;4.70;2.10;;;;;;;;;;10338521;28;20037;-83
2021/08/04 09:11:17;;;;;;;5.15;1.80;;;;;;;;;;10337541;28;20460;-83
2021/08/04 09:16:19;;;;;;;2.78;1.50;;;;;;;;;;10337227;28;20033;-83
2021/08/04 09:21:21;;;;;;;6.35;1.80;;;;;;;;;;10337632;28;20088;-83
2021/08/04 09:26:25;;;;;;;4.20;1.80;;;;;;;;;;10337134;28;20030;-83
2021/08/04 09:31:46;;;;;;;4.40;2.08;;;;;;;;;;10337487;28;20031;-83
2021/08/04 09:36:57;;;;;;;4.65;1.80;;;;;;;;;;10328376;28;20034;-83
2021/08/04 09:41:59;;;;;;;3.72;1.85;;;;;;;;;;10336579;28;20117;-84
2021/08/04 09:47:07;;;;;;;4.43;1.85;;;;;;;;;;10319201;28;20045;-83
2021/08/04 09:52:10;;;;;;;3.78;2.05;;;;;;;;;;10335788;28;20117;-83
2021/08/04 09:57:11;;;;;;;3.28;1.98;;;;;;;;;;10335697;28;20045;-83
2021/08/04 10:02:28;;;;;;;7.25;2.20;;;;;;;;;;10335766;28;20042;-83
2021/08/04 10:07:29;;;;;;;3.10;2.08;;;;;;;;;;10324010;28;20129;-83
2021/08/04 10:12:29;;;;;;;3.73;1.70;;;;;;;;;;10335550;28;20528;-83
2021/08/04 10:17:29;;;;;;;3.67;1.77;;;;;;;;;;10335467;28;20030;-83
2021/08/04 10:22:30;;;;;;;5.07;1.90;;;;;;;;;;10333750;28;21088;-82
2021/08/04 10:27:31;;;;;;;5.40;2.07;;;;;;;;;;10320579;28;20044;-81
2021/08/04 10:32:32;;;;;;;2.67;1.60;;;;;;;;;;10334896;28;20109;-81
2021/08/04 10:37:33;;;;;;;4.88;1.83;;;;;;;;;;10333401;28;20117;-80
2021/08/04 10:42:39;;;;;;;3.63;2.00;;;;;;;;;;10334103;28;20030;-80
2021/08/04 10:47:39;;;;;;;4.63;1.95;;;;;;;;;;10334684;28;20030;-80
2021/08/04 10:52:57;;;;;;;3.37;1.73;;;;;;;;;;10334501;28;20034;-80
2021/08/04 10:58:04;;;;;;;3.25;1.77;;;;;;;;;;10334537;28;20034;-80
2021/08/04 11:03:41;;;;;;;6.20;1.83;;;;;;;;;;10334719;28;20069;-80
2021/08/04 11:08:47;;;;;;;4.57;1.73;;;;;;;;;;10334007;28;20046;-80
2021/08/04 11:13:54;;;;;;;4.05;1.48;;;;;;;;;;10333556;28;20444;-80
2021/08/04 11:19:10;;;;;;;2.13;1.67;;;;;;;;;;10334161;28;20429;-80
2021/08/04 11:24:11;;;;;;;3.03;1.73;;;;;;;;;;10332969;28;20053;-80
2021/08/04 11:29:11;;;;;;;2.77;1.67;;;;;;;;;;10333811;28;20035;-80
2021/08/04 11:34:26;;;;;;;2.38;1.58;;;;;;;;;;10331994;28;20148;-84
2021/08/04 11:39:26;;;;;;;2.53;1.55;;;;;;;;;;10339384;28;20038;-80
2021/08/04 11:44:27;;;;;;;2.63;1.60;;;;;;;;;;10343805;28;20049;-81
2021/08/04 11:49:31;;;;;;;4.95;1.65;;;;;;;;;;10341345;28;20448;-81
2021/08/04 11:54:41;;;;;;;4.10;1.80;;;;;;;;;;10341762;28;20069;-80
2021/08/04 11:59:47;;;;;;;3.63;2.05;;;;;;;;;;10341448;28;20464;-81
2021/08/04 12:04:50;;;;;;;3.17;1.55;;;;;;;;;;10340116;28;20406;-80
2021/08/04 12:09:51;;;;;;;2.47;1.90;;;;;;;;;;10358215;28;20050;-81
2021/08/04 12:14:52;;;;;;;4.63;1.70;;;;;;;;;;10347215;28;20034;-81
2021/08/04 12:19:55;;;;;;;3.30;1.80;;;;;;;;;;10353125;28;20034;-80
2021/08/04 12:24:58;;;;;;;3.67;1.80;;;;;;;;;;10340910;28;20092;-81
2021/08/04 12:30:22;;;;;;;3.92;1.95;;;;;;;;;;10341515;28;20376;-80
2021/08/04 12:35:35;;;;;;;3.15;1.60;;;;;;;;;;10352672;28;20122;-81
2021/08/04 12:40:36;;;;;;;3.60;1.88;;;;;;;;;;10354696;28;20460;-80
2021/08/04 12:45:58;;;;;;;4.03;1.90;;;;;;;;;;10347279;28;20093;-80
2021/08/04 12:50:59;;;;;;;4.03;2.00;;;;;;;;;;10338089;28;20049;-80
2021/08/04 12:56:07;;;;;;;5.72;2.75;;;;;;;;;;10343995;28;20046;-80
2021/08/04 13:01:21;;;;;;;6.53;2.00;;;;;;;;;;10348707;28;20104;-80
2021/08/04 13:06:49;;;;;;;9.20;2.42;;;;;;;;;;10338915;28;20030;-80
2021/08/04 13:11:51;;;;;;;5.68;1.95;;;;;;;;;;10337710;28;20038;-81
2021/08/04 13:16:51;;;;;;;6.68;2.00;;;;;;;;;;10339812;28;20420;-80
2021/08/04 13:22:06;;;;;;;4.40;2.07;;;;;;;;;;10336977;28;20084;-81
2021/08/04 13:27:29;;;;;;;4.78;1.80;;;;;;;;;;10356574;28;20420;-81
2021/08/04 13:32:29;;;;;;;3.88;2.03;;;;;;;;;;10339471;28;20040;-80
2021/08/04 13:37:30;;;;;;;4.83;2.10;;;;;;;;;;10337673;28;20040;-80
2021/08/04 13:42:34;;;;;;;6.73;2.00;;;;;;;;;;10336155;28;20492;-80
2021/08/04 13:47:34;;;;;;;5.60;2.05;;;;;;;;;;10333601;28;20050;-80
2021/08/04 13:52:35;;;;;;;4.37;1.80;;;;;;;;;;10334929;28;20061;-79
2021/08/04 13:57:37;;;;;;;7.18;2.13;;;;;;;;;;10335326;28;20038;-80
2021/08/04 14:02:38;;;;;;;4.30;2.08;;;;;;;;;;10335305;28;20464;-79
2021/08/04 14:07:38;;;;;;;4.17;1.80;;;;;;;;;;10338034;28;20042;-80
2021/08/04 14:12:39;;;;;;;4.95;2.38;;;;;;;;;;10335101;28;20826;-80
2021/08/04 14:17:40;;;;;;;2.90;1.95;;;;;;;;;;10335715;28;20034;-80
2021/08/04 14:22:41;;;;;;;7.20;2.15;;;;;;;;;;10334746;28;20380;-81
2021/08/04 14:27:42;;;;;;;5.40;2.30;;;;;;;;;;10335401;28;20380;-80
2021/08/04 14:32:43;;;;;;;5.35;2.22;;;;;;;;;;10335547;28;20034;-80
2021/08/04 14:37:43;;;;;;;4.05;2.20;;;;;;;;;;10347135;28;20080;-80
2021/08/04 14:42:44;;;;;;;6.03;2.37;;;;;;;;;;10336637;28;20112;-80
2021/08/04 14:47:44;;;;;;;5.38;2.42;;;;;;;;;;10334517;28;20424;-80
2021/08/04 14:52:44;;;;;;;4.20;2.20;;;;;;;;;;10334456;28;20361;-81
2021/08/04 14:57:46;;;;;;;4.25;2.10;;;;;;;;;;10333682;28;20456;-80
2021/08/04 15:02:46;;;;;;;4.40;2.00;;;;;;;;;;10334832;28;20113;-81
2021/08/04 15:07:47;;;;;;;4.23;2.20;;;;;;;;;;10334048;28;20046;-80
2021/08/04 15:12:47;;;;;;;4.50;2.13;;;;;;;;;;10338070;28;20070;-80
2021/08/04 15:17:47;;;;;;;3.77;1.90;;;;;;;;;;10344440;28;20441;-80
2021/08/04 15:22:49;;;;;;;4.90;2.47;;;;;;;;;;10343799;28;20854;-80
2021/08/04 15:27:49;;;;;;;3.90;1.90;;;;;;;;;;10345879;28;20080;-80
2021/08/04 15:32:50;;;;;;;3.75;2.08;;;;;;;;;;10332450;28;20448;-80
2021/08/04 15:37:50;;;;;;;6.32;2.03;;;;;;;;;;10331483;28;20041;-80
2021/08/04 15:42:51;;;;;;;3.50;2.13;;;;;;;;;;10332288;28;20110;-81
2021/08/04 15:47:52;;;;;;;8.13;2.30;;;;;;;;;;10332420;28;20026;-80
2021/08/04 15:52:52;;;;;;;6.13;2.17;;;;;;;;;;10331735;28;20060;-81
2021/08/04 15:57:52;;;;;;;3.67;2.43;;;;;;;;;;10331973;28;20349;-81
2021/08/04 16:02:53;;;;;;;4.07;2.13;;;;;;;;;;10332229;28;20038;-81
2021/08/04 16:07:53;;;;;;;4.40;2.10;;;;;;;;;;10339307;23;20051;-81
2021/08/04 16:12:54;;;;;;;4.87;2.73;;;;;;;;;;10333402;28;20575;-81
2021/08/04 16:17:55;;;;;;;2.20;1.97;;;;;;;;;;10332181;28;20030;-81
2021/08/04 16:22:58;;;;;;;3.85;2.30;;;;;;;;;;10332342;28;20510;-81
2021/08/04 16:27:59;;;;;;;5.10;2.25;;;;;;;;;;10332140;28;20041;-81
2021/08/04 16:33:01;;;;;;;2.70;2.22;;;;;;;;;;10338735;28;20026;-81
2021/08/04 16:38:01;;;;;;;4.22;2.10;;;;;;;;;;10338516;28;20092;-80
2021/08/04 16:43:02;;;;;;;3.72;2.00;;;;;;;;;;10339374;28;20076;-81
2021/08/04 16:48:02;;;;;;;4.25;2.45;;;;;;;;;;10339177;28;20084;-80
2021/08/04 16:53:03;;;;;;;4.93;2.20;;;;;;;;;;10339024;28;20030;-81
2021/08/04 16:58:07;;;;;;;3.47;2.28;;;;;;;;;;10338293;28;20046;-80
2021/08/04 17:03:11;;;;;;;7.38;2.20;;;;;;;;;;10339208;28;20113;-82
2021/08/04 17:08:13;;;;;;;3.45;1.98;;;;;;;;;;10338480;28;20065;-81
2021/08/04 17:13:13;;;;;;;6.30;2.00;;;;;;;;;;10338067;28;20380;-81
2021/08/04 17:18:15;;;;;;;3.17;2.17;;;;;;;;;;10337973;28;20033;-81
2021/08/04 17:23:16;;;;;;;5.40;2.03;;;;;;;;;;10338266;28;20445;-81
2021/08/04 17:28:16;;;;;;;4.72;2.33;;;;;;;;;;10336849;28;20396;-81
2021/08/04 17:33:17;;;;;;;5.60;1.88;;;;;;;;;;10337832;28;20037;-80
2021/08/04 17:38:17;;;;;;;3.13;1.97;;;;;;;;;;10337183;28;20034;-81
2021/08/04 17:43:18;;;;;;;2.25;1.95;;;;;;;;;;10334607;28;20038;-81
2021/08/04 17:48:18;;;;;;;8.15;2.42;;;;;;;;;;10336156;28;20058;-81
2021/08/04 17:53:19;;;;;;;6.00;2.33;;;;;;;;;;10336919;28;20069;-81
2021/08/04 17:58:19;;;;;;;3.23;1.80;;;;;;;;;;10335878;28;20984;-80
2021/08/04 18:03:20;;;;;;;4.80;1.97;;;;;;;;;;10335916;28;20448;-81
2021/08/04 18:08:20;;;;;;;3.88;1.90;;;;;;;;;;10336098;28;20129;-81
2021/08/04 18:13:20;;;;;;;2.92;2.25;;;;;;;;;;10336316;28;20368;-80
2021/08/04 18:18:21;;;;;;;4.97;1.93;;;;;;;;;;10335057;28;20530;-81
2021/08/04 18:23:21;;;;;;;4.38;2.33;;;;;;;;;;10335751;28;20453;-81
2021/08/04 18:28:22;;;;;;;3.33;1.93;;;;;;;;;;10335162;28;20118;-81
2021/08/04 18:33:22;;;;;;;2.63;1.90;;;;;;;;;;10334971;28;20032;-81
2021/08/04 18:38:23;;;;;;;5.90;1.95;;;;;;;;;;10335104;28;20026;-82
2021/08/04 18:43:24;;;;;;;2.97;1.70;;;;;;;;;;10333860;28;20034;-82
2021/08/04 18:48:25;;;;;;;2.65;2.05;;;;;;;;;;10334770;28;20027;-81
2021/08/04 18:53:25;;;;;;;3.07;2.00;;;;;;;;;;10334138;28;20431;-82
2021/08/04 18:58:25;;;;;;;3.40;2.03;;;;;;;;;;10333950;28;20041;-81
2021/08/04 19:03:26;;;;;;;3.97;1.90;;;;;;;;;;10333794;28;20105;-82
2021/08/04 19:08:26;;;;;;;1.80;1.70;;;;;;;;;;10333495;28;20050;-82
2021/08/04 19:13:27;;;;;;;2.13;1.80;;;;;;;;;;10333679;28;20457;-83
2021/08/04 19:18:27;;;;;;;3.27;2.07;;;;;;;;;;10333250;28;20460;-82
2021/08/04 19:23:28;;;;;;;2.90;1.87;;;;;;;;;;10334162;28;20023;-83
2021/08/04 19:28:28;;;;;;;3.97;2.20;;;;;;;;;;10333053;28;20503;-83
2021/08/04 19:33:28;;;;;;;2.80;1.93;;;;;;;;;;10333968;28;20026;-84
2021/08/04 19:38:29;;;;;;;2.10;1.73;;;;;;;;;;10347100;28;20357;-82
2021/08/04 19:43:29;;;;;;;5.32;2.38;;;;;;;;;;10341768;28;20499;-83
2021/08/04 19:48:30;;;;;;;8.52;2.35;;;;;;;;;;10332703;28;20408;-83
2021/08/04 19:53:31;;;;;;;3.00;2.10;;;;;;;;;;10345560;28;20456;-82
2021/08/04 19:58:31;;;;;;;3.30;2.10;;;;;;;;;;10333184;28;20112;-82
2021/08/04 20:03:33;;;;;;;6.33;2.73;;;;;;;;;;10333871;28;20081;-82
2021/08/04 20:08:34;;;;;;;7.57;2.38;;;;;;;;;;10340506;28;20498;-82
2021/08/04 20:13:34;;;;;;;5.38;2.40;;;;;;;;;;10341660;28;20145;-82
2021/08/04 20:18:35;;;;;;;4.37;2.50;;;;;;;;;;10341130;28;20034;-82
2021/08/04 20:23:35;;;;;;;4.60;2.20;;;;;;;;;;10341569;28;20419;-82
2021/08/04 20:28:36;;;;;;;5.03;2.60;;;;;;;;;;10339280;28;20445;-83
2021/08/04 20:33:36;;;;;;;6.45;2.33;;;;;;;;;;10340707;28;20036;-82
2021/08/04 20:38:36;;;;;;;5.03;2.40;;;;;;;;;;10338971;28;20029;-82
2021/08/04 20:43:37;;;;;;;5.03;2.60;;;;;;;;;;10339550;28;20069;-83
2021/08/04 20:48:37;;;;;;;2.33;2.13;;;;;;;;;;10338486;28;20057;-82
2021/08/04 20:53:38;;;;;;;5.43;2.08;;;;;;;;;;10339589;28;20517;-83
2021/08/04 20:58:38;;;;;;;6.97;2.60;;;;;;;;;;10340497;28;20044;-83
2021/08/04 21:03:39;;;;;;;4.03;2.20;;;;;;;;;;10341719;28;20034;-83
2021/08/04 21:08:39;;;;;;;8.27;2.40;;;;;;;;;;10338502;28;20042;-82
2021/08/04 21:13:40;;;;;;;4.33;2.30;;;;;;;;;;10344114;28;20065;-82
2021/08/04 21:18:41;;;;;;;3.25;2.30;;;;;;;;;;10336250;28;20034;-81
2021/08/04 21:23:41;;;;;;;3.80;2.20;;;;;;;;;;10339160;28;20046;-81
2021/08/04 21:28:41;;;;;;;5.60;2.10;;;;;;;;;;10337312;28;20124;-81
2021/08/04 21:33:42;;;;;;;4.83;2.37;;;;;;;;;;10338598;28;20491;-82
2021/08/04 21:38:42;;;;;;;4.35;2.20;;;;;;;;;;10336815;28;20041;-81
2021/08/04 21:43:43;;;;;;;6.00;2.23;;;;;;;;;;10345401;28;20086;-83
2021/08/04 21:48:43;;;;;;;8.63;2.40;;;;;;;;;;10336886;28;20058;-83
2021/08/04 21:53:44;;;;;;;4.73;2.63;;;;;;;;;;10337719;28;20027;-82
2021/08/04 21:58:44;;;;;;;5.32;2.35;;;;;;;;;;10334191;28;20022;-82
2021/08/04 22:03:44;;;;;;;5.40;2.17;;;;;;;;;;10335658;28;20037;-82
2021/08/04 22:08:45;;;;;;;5.57;2.53;;;;;;;;;;10336059;28;20093;-82
2021/08/04 22:13:45;;;;;;;3.53;2.40;;;;;;;;;;10336388;28;20022;-82
2021/08/04 22:18:46;;;;;;;4.37;2.20;;;;;;;;;;10334224;28;20041;-82
2021/08/04 22:23:46;;;;;;;4.50;2.00;;;;;;;;;;10335062;28;20054;-82
2021/08/04 22:28:46;;;;;;;4.73;2.20;;;;;;;;;;10334448;28;20094;-82
2021/08/04 22:33:47;;;;;;;2.78;2.20;;;;;;;;;;10334343;28;20468;-82
2021/08/04 22:38:47;;;;;;;6.80;2.23;;;;;;;;;;10333152;28;20038;-83
2021/08/04 22:43:47;;;;;;;4.20;2.03;;;;;;;;;;10334232;28;20428;-82
2021/08/04 22:48:48;;;;;;;3.83;2.10;;;;;;;;;;10335201;28;20057;-82
2021/08/04 22:53:49;;;;;;;5.22;2.30;;;;;;;;;;10335128;28;20082;-83
2021/08/04 22:58:49;;;;;;;4.40;2.25;;;;;;;;;;10334179;28;20034;-82
2021/08/04 23:03:50;;;;;;;5.30;2.10;;;;;;;;;;10334068;28;20490;-82
2021/08/04 23:08:50;;;;;;;4.47;1.90;;;;;;;;;;10334074;28;20077;-82
2021/08/04 23:13:50;;;;;;;4.87;2.07;;;;;;;;;;10334122;28;20037;-82
2021/08/04 23:18:51;;;;;;;3.27;2.13;;;;;;;;;;10333450;28;20882;-82
2021/08/04 23:23:51;;;;;;;3.15;1.92;;;;;;;;;;10333062;28;20038;-81
2021/08/04 23:28:52;;;;;;;3.40;2.00;;;;;;;;;;10333876;28;20463;-81
2021/08/04 23:33:52;;;;;;;2.83;1.70;;;;;;;;;;10332680;28;20461;-81
2021/08/04 23:38:53;;;;;;;9.57;2.35;;;;;;;;;;10333235;28;20034;-81
2021/08/04 23:43:53;;;;;;;2.67;2.00;;;;;;;;;;10341681;28;20038;-82
2021/08/04 23:48:54;;;;;;;4.57;2.13;;;;;;;;;;10342282;28;20440;-82
2021/08/04 23:53:54;;;;;;;2.43;2.13;;;;;;;;;;10341193;28;20065;-82
2021/08/04 23:58:54;;;;;;;3.10;1.93;;;;;;;;;;10356499;28;20388;-82
